Grande Europa — ICGE — position and weather

sailwx.info

Track history (hours):
 
Tides and Currents Weather Stations Pressure Air Temp Water Temp Dewpoint Dewpoint Depression Visibility Wind Speed Wind Dir Waves Ship Positions

Grande Europa

Last reported at 2017-Oct-17 16:49 UTC. Time now 2017-Oct-17 19:17 UTC.
Position N 56°03' E 007°31'.

Length 183 m; draft 8 m.

Type: Cargo ship. MMSI: 247206000.

Date/timePositionNaut miles runAvg speedWind from/ knotsBaromVisibWave heightAir tempDewpointWater temp
2017-Oct-17 16:49N 56°03' E 007°31'514.5
2017-Oct-17 16:30N 55°58' E 007°29'714.6
2017-Oct-17 16:00N 55°51' E 007°26'714.5
2017-Oct-17 15:30N 55°44' E 007°23'714.4
2017-Oct-17 15:00N 55°37' E 007°20'713.8
2017-Oct-17 14:31N 55°31' E 007°22'713.4
2017-Oct-17 14:01N 55°27' E 007°33'713.9
2017-Oct-17 13:30N 55°24' E 007°44'713.4
2017-Oct-17 13:00N 55°23' E 007°55'714.2
2017-Oct-17 12:31N 55°24' E 008°08'510.7
2017-Oct-17 12:00N 55°26' E 008°16'610.8
2017-Oct-17 11:30N 55°28' E 008°25'1 1.6
2017-Oct-17 10:52N 55°28' E 008°27'0 0.0
2017-Oct-17 10:22N 55°28' E 008°27'0 0.0
2017-Oct-17 09:52N 55°28' E 008°27'0 0.0
2017-Oct-17 09:28N 55°28' E 008°27'0 0.0
2017-Oct-17 08:58N 55°28' E 008°27'0 0.0
2017-Oct-17 08:25N 55°28' E 008°27'0 0.0
2017-Oct-17 07:55N 55°28' E 008°27'0 0.0
2017-Oct-17 07:25N 55°28' E 008°27'0 0.0
2017-Oct-17 06:46N 55°28' E 008°27'0 0.0
2017-Oct-17 06:28N 55°28' E 008°27'0 0.0
2017-Oct-17 05:58N 55°28' E 008°27'0 0.0
2017-Oct-17 05:28N 55°28' E 008°27'0 0.0
2017-Oct-17 04:58N 55°28' E 008°27'0 0.0
2017-Oct-17 04:30N 55°28' E 008°27'2 3.1
2017-Oct-17 04:00N 55°28' E 008°25'4 8.5
2017-Oct-17 03:30N 55°27' E 008°18'510.6
2017-Oct-17 03:00N 55°24' E 008°10'713.9
2017-Oct-17 02:30N 55°20' E 008°00'815.8
2017-Oct-17 02:00N 55°15' E 007°50'815.9
2017-Oct-17 01:30N 55°10' E 007°39'815.8
2017-Oct-17 01:00N 55°05' E 007°28'815.3
2017-Oct-17 00:30N 54°60' E 007°18'815.4
2017-Oct-17 00:00N 54°56' E 007°06'815.3
2017-Oct-16 23:30N 54°53' E 006°54'815.3
2017-Oct-16 23:00N 54°49' E 006°42'7815.7
2017-Oct-16 18:04N 54°09' E 004°48'116.9
2017-Oct-16 18:00N 54°08' E 004°46'816.4
2017-Oct-16 17:29N 54°01' E 004°39'816.5
2017-Oct-16 16:59N 53°54' E 004°33'816.9
2017-Oct-16 16:30N 53°48' E 004°23'816.8
2017-Oct-16 16:00N 53°42' E 004°12'2117.1
2017-Oct-16 14:47N 53°29' E 003°45'517.3
2017-Oct-16 14:29N 53°25' E 003°41'1717.4
2017-Oct-16 13:30N 53°09' E 003°29'917.6
2017-Oct-16 13:00N 53°01' E 003°23'917.7
2017-Oct-16 12:30N 52°53' E 003°19'917.8
2017-Oct-16 12:00N 52°45' E 003°12'918.0
2017-Oct-16 11:30N 52°37' E 003°06'917.9
2017-Oct-16 11:00N 52°28' E 002°59'918.1
2017-Oct-16 10:30N 52°20' E 002°53'917.8
2017-Oct-16 10:00N 52°12' E 002°47'817.3
2017-Oct-16 09:30N 52°04' E 002°42'917.2
2017-Oct-16 09:00N 51°56' E 002°42'917.7
2017-Oct-16 08:30N 51°48' E 002°36'917.6
2017-Oct-16 08:00N 51°40' E 002°27'917.3
2017-Oct-16 07:30N 51°34' E 002°18'816.8
2017-Oct-16 07:01N 51°28' E 002°09'816.0
2017-Oct-16 06:30N 51°22' E 002°01'815.2
2017-Oct-16 06:00N 51°16' E 001°53'713.3
2017-Oct-16 05:31N 51°11' E 001°46'713.0
2017-Oct-16 05:00N 51°06' E 001°39'612.9
2017-Oct-16 04:30N 51°01' E 001°33'612.5
2017-Oct-16 04:00N 50°55' E 001°28'612.8
2017-Oct-16 03:30N 50°49' E 001°24'713.7
2017-Oct-16 03:00N 50°43' E 001°20'713.8
2017-Oct-16 02:30N 50°38' E 001°13'714.4
2017-Oct-16 02:00N 50°34' E 001°04'713.7
2017-Oct-16 01:30N 50°30' E 000°55'713.8
2017-Oct-16 01:00N 50°28' E 000°44'713.8
2017-Oct-16 00:30N 50°26' E 000°34'713.8
2017-Oct-16 00:00N 50°24' E 000°23'713.7
2017-Oct-15 23:30N 50°23' E 000°13'713.7
2017-Oct-15 23:00N 50°21' E 000°03'713.8
2017-Oct-15 22:30N 50°19' W 000°08'713.8
2017-Oct-15 22:00N 50°17' W 000°18'713.7
2017-Oct-15 21:30N 50°16' W 000°29'713.9
2017-Oct-15 21:00N 50°14' W 000°39'914.4
2017-Oct-15 20:24N 50°11' W 000°52'5316.2
2017-Oct-15 17:06N 49°58' W 002°13'317.2
2017-Oct-15 16:54N 49°57' W 002°18'716.9
2017-Oct-15 16:30N 49°55' W 002°27'816.5
2017-Oct-15 16:00N 49°53' W 002°40'816.1
2017-Oct-15 15:30N 49°50' W 002°52'917.5
2017-Oct-15 15:00N 49°49' W 003°05'1818.0
2017-Oct-15 14:00N 49°47' W 003°33'917.8
2017-Oct-15 13:30N 49°46' W 003°46'917.7
2017-Oct-15 12:59N 49°45' W 004°01'817.5
2017-Oct-15 12:30N 49°44' W 004°13'917.2
2017-Oct-15 12:00N 49°44' W 004°27'917.2
2017-Oct-15 11:30N 49°44' W 004°40'917.1
2017-Oct-15 11:00N 49°43' W 004°53'917.1
2017-Oct-15 10:30N 49°42' W 005°06'917.1
2017-Oct-15 10:00N 49°41' W 005°20'817.0
2017-Oct-15 09:30N 49°41' W 005°33'817.0
2017-Oct-15 09:00N 49°40' W 005°46'917.0
2017-Oct-15 08:30N 49°39' W 005°59'816.8
2017-Oct-15 08:00N 49°39' W 006°12'917.5
2017-Oct-15 07:30N 49°38' W 006°25'917.3
2017-Oct-15 07:00N 49°40' W 006°39'917.2
2017-Oct-15 06:29N 49°44' W 006°51'917.1
2017-Oct-15 05:58N 49°52' W 006°58'817.8
2017-Oct-15 05:30N 49°59' W 007°02'917.7
2017-Oct-15 05:00N 50°08' W 007°07'917.7
2017-Oct-15 04:30N 50°16' W 007°11'1217.7
2017-Oct-15 03:48N 50°28' W 007°18'3717.5
2017-Oct-15 01:40N 51°03' W 007°37'417.2
2017-Oct-15 01:27N 51°06' W 007°39'817.3
2017-Oct-15 01:00N 51°14' W 007°44'917.1
2017-Oct-15 00:30N 51°22' W 007°48'917.1
2017-Oct-15 00:00N 51°29' W 007°54'917.3
2017-Oct-14 23:30N 51°36' W 008°02'917.2
2017-Oct-14 23:00N 51°43' W 008°11'611.3
2017-Oct-14 22:30N 51°48' W 008°16'3 6.5
2017-Oct-14 22:00N 51°50' W 008°19'0 0.9
2017-Oct-14 21:29N 51°50' W 008°20'0 0.0
2017-Oct-14 20:59N 51°50' W 008°20'0 0.0
2017-Oct-14 20:29N 51°50' W 008°20'0 0.0
2017-Oct-14 19:59N 51°50' W 008°20'0 0.0
2017-Oct-14 19:29N 51°50' W 008°20'0 0.0
2017-Oct-14 18:59N 51°50' W 008°20'0 0.0
2017-Oct-14 18:29N 51°50' W 008°20'0 0.0
2017-Oct-14 17:59N 51°50' W 008°20'0 0.0
2017-Oct-14 17:29N 51°50' W 008°20'0 0.0
2017-Oct-14 16:59N 51°50' W 008°20'0 0.0
2017-Oct-14 16:29N 51°50' W 008°20'0 0.0
2017-Oct-14 15:59N 51°50' W 008°20'0 0.0
2017-Oct-14 15:29N 51°50' W 008°20'0 0.0
2017-Oct-14 14:59N 51°50' W 008°20'0 0.0
2017-Oct-14 14:29N 51°50' W 008°20'0 0.0
2017-Oct-14 13:59N 51°50' W 008°20'0 0.0
2017-Oct-14 13:29N 51°50' W 008°20'0 0.0
2017-Oct-14 12:59N 51°50' W 008°20'0 0.0
2017-Oct-14 12:29N 51°50' W 008°20'0 1.0
2017-Oct-14 12:00N 51°50' W 008°19'3 5.1
2017-Oct-14 11:30N 51°49' W 008°16'612.0
2017-Oct-14 11:01N 51°45' W 008°09'917.3
2017-Oct-14 10:30N 51°43' W 007°55'917.6
2017-Oct-14 10:00N 51°42' W 007°41'917.5
2017-Oct-14 09:31N 51°41' W 007°27'917.2
2017-Oct-14 09:01N 51°40' W 007°13'1517.3
2017-Oct-14 08:07N 51°38' W 006°49'3417.0
2017-Oct-14 06:07N 51°33' W 005°55'316.8
2017-Oct-14 05:58N 51°33' W 005°51'816.9
2017-Oct-14 05:30N 51°32' W 005°38'917.1
2017-Oct-14 05:00N 51°31' W 005°25'817.2
2017-Oct-14 04:31N 51°30' W 005°11'917.8
2017-Oct-14 04:00N 51°28' W 004°57'917.9
2017-Oct-14 03:29N 51°27' W 004°42'918.0
2017-Oct-14 03:00N 51°26' W 004°28'1018.1
2017-Oct-14 02:27N 51°24' W 004°13'817.9
2017-Oct-14 02:00N 51°23' W 003°60'917.9
2017-Oct-14 01:30N 51°22' W 003°46'1117.7
2017-Oct-14 00:54N 51°21' W 003°29'717.4
2017-Oct-14 00:30N 51°21' W 003°17'611.9
2017-Oct-14 00:00N 51°22' W 003°08'714.9
2017-Oct-13 23:31N 51°27' W 002°60'714.9
2017-Oct-13 23:01N 51°29' W 002°48'3 6.1
2017-Oct-13 22:30N 51°30' W 002°44'0 0.2
2017-Oct-13 22:01N 51°30' W 002°43'0 0.7
2017-Oct-13 21:29N 51°30' W 002°43'0 0.0
2017-Oct-13 20:59N 51°30' W 002°43'0 0.0
2017-Oct-13 20:29N 51°30' W 002°43'0 0.0
2017-Oct-13 19:59N 51°30' W 002°43'0 0.0
2017-Oct-13 19:29N 51°30' W 002°43'0 0.0
2017-Oct-13 18:59N 51°30' W 002°43'0 0.0
2017-Oct-13 18:29N 51°30' W 002°43'0 0.0
2017-Oct-13 17:59N 51°30' W 002°43'0 0.0
2017-Oct-13 17:29N 51°30' W 002°43'0 0.0
2017-Oct-13 16:59N 51°30' W 002°43'0 0.0
2017-Oct-13 16:29N 51°30' W 002°43'0 0.0
2017-Oct-13 15:59N 51°30' W 002°43'0 0.0
2017-Oct-13 15:29N 51°30' W 002°43'0 0.0
2017-Oct-13 14:59N 51°30' W 002°43'0 0.0
2017-Oct-13 14:29N 51°30' W 002°43'0 0.0
2017-Oct-13 13:59N 51°30' W 002°43'0 0.0
2017-Oct-13 13:29N 51°30' W 002°43'0 0.0
2017-Oct-13 12:59N 51°30' W 002°43'0 0.0
2017-Oct-13 12:29N 51°30' W 002°43'0 0.0
2017-Oct-13 11:59N 51°30' W 002°43'0 0.0
2017-Oct-13 11:29N 51°30' W 002°43'0 0.0
2017-Oct-13 10:59N 51°30' W 002°43'0 0.0
2017-Oct-13 10:29N 51°30' W 002°43'0 0.0
2017-Oct-13 09:59N 51°30' W 002°43'0 0.0
2017-Oct-13 09:29N 51°30' W 002°43'0 0.0
2017-Oct-13 08:59N 51°30' W 002°43'0 0.0
2017-Oct-13 08:29N 51°30' W 002°43'0 0.0
2017-Oct-13 07:59N 51°30' W 002°43'0 0.0
2017-Oct-13 07:29N 51°30' W 002°43'0 0.0
2017-Oct-13 06:59N 51°30' W 002°43'0 0.0
2017-Oct-13 06:29N 51°30' W 002°43'0 0.0
2017-Oct-13 05:59N 51°30' W 002°43'0 0.0
2017-Oct-13 05:29N 51°30' W 002°43'0 0.0
2017-Oct-13 04:59N 51°30' W 002°43'0 0.0
2017-Oct-13 04:29N 51°30' W 002°43'0 0.0
2017-Oct-13 03:59N 51°30' W 002°43'0 0.0
2017-Oct-13 03:29N 51°30' W 002°43'0 0.0
2017-Oct-13 02:59N 51°30' W 002°43'0 0.0
2017-Oct-13 02:29N 51°30' W 002°43'0 0.0
2017-Oct-13 01:59N 51°30' W 002°43'0 0.0
2017-Oct-13 01:29N 51°30' W 002°43'0 0.0
2017-Oct-13 00:59N 51°30' W 002°43'0 0.0
2017-Oct-13 00:29N 51°30' W 002°43'0 0.1
2017-Oct-13 00:00N 51°30' W 002°43'0 0.7
2017-Oct-12 23:30N 51°30' W 002°43'2 3.0
2017-Oct-12 23:00N 51°30' W 002°46'612.4
2017-Oct-12 22:30N 51°28' W 002°55'917.6
2017-Oct-12 22:01N 51°22' W 003°06'1014.9
2017-Oct-12 21:21N 51°21' W 003°22'713.1
2017-Oct-12 20:51N 51°21' W 003°32'1017.4
2017-Oct-12 20:17N 51°21' W 003°48'518.6
2017-Oct-12 20:00N 51°21' W 003°56'918.2
2017-Oct-12 19:30N 51°21' W 004°11'918.0
2017-Oct-12 18:59N 51°21' W 004°26'817.7
2017-Oct-12 18:30N 51°21' W 004°39'917.5
2017-Oct-12 18:00N 51°21' W 004°53'917.3
2017-Oct-12 17:30N 51°20' W 005°07'612.2
2017-Oct-12 17:00N 51°17' W 005°15'714.7
2017-Oct-12 16:30N 51°10' W 005°16'714.7
2017-Oct-12 16:00N 51°02' W 005°16'815.3
2017-Oct-12 15:30N 50°55' W 005°16'714.7
2017-Oct-12 15:00N 50°47' W 005°15'714.8
2017-Oct-12 14:30N 50°40' W 005°19'816.8
2017-Oct-12 14:00N 50°35' W 005°29'816.9
2017-Oct-12 13:30N 50°29' W 005°39'816.8
2017-Oct-12 13:00N 50°24' W 005°49'815.9
2017-Oct-12 12:30N 50°16' W 005°54'4116.6
2017-Oct-12 10:03N 49°36' W 005°57'317.6
2017-Oct-12 09:55N 49°33' W 005°58'917.5
2017-Oct-12 09:25N 49°25' W 006°03'817.7
2017-Oct-12 08:57N 49°18' W 006°08'817.8
2017-Oct-12 08:30N 49°10' W 006°13'917.9
2017-Oct-12 08:00N 49°02' W 006°18'58818.4
2017-Oct-11 00:00N 39°34' W 009°52'918.8
2017-Oct-10 23:30N 39°25' W 009°53'1019.1
2017-Oct-10 23:00N 39°15' W 009°53'918.8
2017-Oct-10 22:30N 39°06' W 009°52'918.7
2017-Oct-10 22:00N 38°57' W 009°52'918.5
2017-Oct-10 21:30N 38°47' W 009°52'918.4
2017-Oct-10 21:00N 38°38' W 009°50'917.9
2017-Oct-10 20:30N 38°32' W 009°42'1019.0
2017-Oct-10 20:00N 38°28' W 009°31'1019.1
2017-Oct-10 19:30N 38°23' W 009°20'917.5
2017-Oct-10 19:00N 38°22' W 009°09'918.0
2017-Oct-10 18:31N 38°26' W 008°59'713.1
2017-Oct-10 18:01N 38°31' W 008°54'1 1.3
2017-Oct-10 17:28N 38°31' W 008°53'0 0.0
2017-Oct-10 16:58N 38°31' W 008°53'0 0.0
2017-Oct-10 16:28N 38°31' W 008°53'0 0.0
2017-Oct-10 15:55N 38°31' W 008°53'0 0.0
2017-Oct-10 15:28N 38°31' W 008°53'0 0.0
2017-Oct-10 14:58N 38°31' W 008°53'0 0.0
2017-Oct-10 14:01N 38°31' W 008°53'0 0.0
2017-Oct-10 13:31N 38°31' W 008°53'0 0.0
2017-Oct-10 13:01N 38°31' W 008°53'0 0.0
2017-Oct-10 12:30N 38°31' W 008°53'0 0.2
2017-Oct-10 12:01N 38°31' W 008°53'3 5.9
2017-Oct-10 11:30N 38°29' W 008°56'613.0
2017-Oct-10 11:00N 38°24' W 009°01'4 7.3
2017-Oct-10 10:30N 38°21' W 009°03'4 8.7
2017-Oct-10 10:00N 38°17' W 009°03'0 0.8
2017-Oct-10 09:30N 38°17' W 009°02'0 0.6
2017-Oct-10 09:00N 38°17' W 009°02'0 0.4
2017-Oct-10 08:30N 38°17' W 009°02'0 0.3
2017-Oct-10 08:00N 38°17' W 009°02'0 0.4
2017-Oct-10 07:30N 38°16' W 009°02'0 0.6
2017-Oct-10 07:00N 38°16' W 009°02'0 0.5
2017-Oct-10 06:30N 38°16' W 009°02'0 0.4
2017-Oct-10 06:00N 38°16' W 009°02'0 0.5
2017-Oct-10 05:30N 38°17' W 009°02'0 0.5
2017-Oct-10 05:00N 38°17' W 009°02'1 1.6
2017-Oct-10 04:30N 38°16' W 009°02'611.1
2017-Oct-10 04:00N 38°11' W 009°03'714.0
2017-Oct-10 03:30N 38°04' W 009°05'815.2
2017-Oct-10 03:00N 37°57' W 009°08'815.5
2017-Oct-10 02:30N 37°49' W 009°10'815.6
2017-Oct-10 02:00N 37°42' W 009°15'816.2
2017-Oct-10 01:30N 37°34' W 009°16'816.0
2017-Oct-10 01:00N 37°26' W 009°17'816.0
2017-Oct-10 00:30N 37°18' W 009°19'816.2
2017-Oct-10 00:00N 37°10' W 009°19'816.1
2017-Oct-09 23:30N 37°02' W 009°21'815.9
2017-Oct-09 23:00N 36°54' W 009°20'815.7
2017-Oct-09 22:30N 36°48' W 009°14'815.7
2017-Oct-09 22:00N 36°44' W 009°06'816.6
2017-Oct-09 21:30N 36°41' W 008°56'816.7
2017-Oct-09 21:00N 36°38' W 008°47'917.2
2017-Oct-09 20:30N 36°35' W 008°36'916.9
2017-Oct-09 19:57N 36°33' W 008°25'917.0
2017-Oct-09 19:25N 36°30' W 008°14'716.7
2017-Oct-09 19:00N 36°28' W 008°06'916.8
2017-Oct-09 18:30N 36°25' W 007°56'817.1
2017-Oct-09 18:00N 36°23' W 007°46'917.3
2017-Oct-09 17:30N 36°20' W 007°36'917.3
2017-Oct-09 17:00N 36°18' W 007°26'917.5
2017-Oct-09 16:30N 36°15' W 007°16'917.6
2017-Oct-09 16:00N 36°12' W 007°05'917.6
2017-Oct-09 15:29N 36°09' W 006°55'817.4
2017-Oct-09 15:00N 36°06' W 006°45'917.2
2017-Oct-09 14:30N 36°03' W 006°35'917.0
2017-Oct-09 13:58N 36°01' W 006°24'918.2
2017-Oct-09 13:28N 35°58' W 006°13'25217.7
2017-Oct-08 23:14N 37°07' W 001°11'719.0
2017-Oct-08 22:51N 37°12' W 001°05'718.9
2017-Oct-08 22:30N 37°16' W 000°58'1818.8
2017-Oct-08 21:33N 37°28' W 000°41'118.6
2017-Oct-08 21:30N 37°29' W 000°41'918.5
2017-Oct-08 21:00N 37°36' W 000°33'918.6
2017-Oct-08 20:30N 37°44' W 000°26'1418.7
2017-Oct-08 19:44N 37°56' W 000°16'418.5
2017-Oct-08 19:30N 37°59' W 000°13'1018.6
2017-Oct-08 18:58N 38°07' W 000°06'1418.6
2017-Oct-08 18:14N 38°19' E 000°03'518.5
2017-Oct-08 18:00N 38°23' E 000°06'141 6.4
2017-Oct-07 19:59N 39°56' E 002°23'916.5
2017-Oct-07 19:27N 39°58' E 002°34'1116.6
2017-Oct-07 18:46N 40°01' E 002°49'  
Track history (hours):
 
Tides and Currents Weather Stations Pressure Air Temp Water Temp Dewpoint Dewpoint Depression Visibility Wind Speed Wind Dir Waves Ship Positions

Grande Europa

Last reported at 2017-Oct-17 16:49 UTC. Time now 2017-Oct-17 19:17 UTC.
Position N 56°03' E 007°31'.

Length 183 m; draft 8 m.

Type: Cargo ship. MMSI: 247206000.

Date/timePositionNaut miles runAvg speedWind from/ knotsBaromVisibWave heightAir tempDewpointWater temp
2017-Oct-17 16:49N 56°03' E 007°31'514.5
2017-Oct-17 16:30N 55°58' E 007°29'714.6
2017-Oct-17 16:00N 55°51' E 007°26'714.5
2017-Oct-17 15:30N 55°44' E 007°23'714.4
2017-Oct-17 15:00N 55°37' E 007°20'713.8
2017-Oct-17 14:31N 55°31' E 007°22'713.4
2017-Oct-17 14:01N 55°27' E 007°33'713.9
2017-Oct-17 13:30N 55°24' E 007°44'713.4
2017-Oct-17 13:00N 55°23' E 007°55'714.2
2017-Oct-17 12:31N 55°24' E 008°08'510.7
2017-Oct-17 12:00N 55°26' E 008°16'610.8
2017-Oct-17 11:30N 55°28' E 008°25'1 1.6
2017-Oct-17 10:52N 55°28' E 008°27'0 0.0
2017-Oct-17 10:22N 55°28' E 008°27'0 0.0
2017-Oct-17 09:52N 55°28' E 008°27'0 0.0
2017-Oct-17 09:28N 55°28' E 008°27'0 0.0
2017-Oct-17 08:58N 55°28' E 008°27'0 0.0
2017-Oct-17 08:25N 55°28' E 008°27'0 0.0
2017-Oct-17 07:55N 55°28' E 008°27'0 0.0
2017-Oct-17 07:25N 55°28' E 008°27'0 0.0
2017-Oct-17 06:46N 55°28' E 008°27'0 0.0
2017-Oct-17 06:28N 55°28' E 008°27'0 0.0
2017-Oct-17 05:58N 55°28' E 008°27'0 0.0
2017-Oct-17 05:28N 55°28' E 008°27'0 0.0
2017-Oct-17 04:58N 55°28' E 008°27'0 0.0
2017-Oct-17 04:30N 55°28' E 008°27'2 3.1
2017-Oct-17 04:00N 55°28' E 008°25'4 8.5
2017-Oct-17 03:30N 55°27' E 008°18'510.6
2017-Oct-17 03:00N 55°24' E 008°10'713.9
2017-Oct-17 02:30N 55°20' E 008°00'815.8
2017-Oct-17 02:00N 55°15' E 007°50'815.9
2017-Oct-17 01:30N 55°10' E 007°39'815.8
2017-Oct-17 01:00N 55°05' E 007°28'815.3
2017-Oct-17 00:30N 54°60' E 007°18'815.4
2017-Oct-17 00:00N 54°56' E 007°06'815.3
2017-Oct-16 23:30N 54°53' E 006°54'815.3
2017-Oct-16 23:00N 54°49' E 006°42'7815.7
2017-Oct-16 18:04N 54°09' E 004°48'116.9
2017-Oct-16 18:00N 54°08' E 004°46'816.4
2017-Oct-16 17:29N 54°01' E 004°39'816.5
2017-Oct-16 16:59N 53°54' E 004°33'816.9
2017-Oct-16 16:30N 53°48' E 004°23'816.8
2017-Oct-16 16:00N 53°42' E 004°12'2117.1
2017-Oct-16 14:47N 53°29' E 003°45'517.3
2017-Oct-16 14:29N 53°25' E 003°41'1717.4
2017-Oct-16 13:30N 53°09' E 003°29'917.6
2017-Oct-16 13:00N 53°01' E 003°23'917.7
2017-Oct-16 12:30N 52°53' E 003°19'917.8
2017-Oct-16 12:00N 52°45' E 003°12'918.0
2017-Oct-16 11:30N 52°37' E 003°06'917.9
2017-Oct-16 11:00N 52°28' E 002°59'918.1
2017-Oct-16 10:30N 52°20' E 002°53'917.8
2017-Oct-16 10:00N 52°12' E 002°47'817.3
2017-Oct-16 09:30N 52°04' E 002°42'917.2
2017-Oct-16 09:00N 51°56' E 002°42'917.7
2017-Oct-16 08:30N 51°48' E 002°36'917.6
2017-Oct-16 08:00N 51°40' E 002°27'917.3
2017-Oct-16 07:30N 51°34' E 002°18'816.8
2017-Oct-16 07:01N 51°28' E 002°09'816.0
2017-Oct-16 06:30N 51°22' E 002°01'815.2
2017-Oct-16 06:00N 51°16' E 001°53'713.3
2017-Oct-16 05:31N 51°11' E 001°46'713.0
2017-Oct-16 05:00N 51°06' E 001°39'612.9
2017-Oct-16 04:30N 51°01' E 001°33'612.5
2017-Oct-16 04:00N 50°55' E 001°28'612.8
2017-Oct-16 03:30N 50°49' E 001°24'713.7
2017-Oct-16 03:00N 50°43' E 001°20'713.8
2017-Oct-16 02:30N 50°38' E 001°13'714.4
2017-Oct-16 02:00N 50°34' E 001°04'713.7
2017-Oct-16 01:30N 50°30' E 000°55'713.8
2017-Oct-16 01:00N 50°28' E 000°44'713.8
2017-Oct-16 00:30N 50°26' E 000°34'713.8
2017-Oct-16 00:00N 50°24' E 000°23'713.7
2017-Oct-15 23:30N 50°23' E 000°13'713.7
2017-Oct-15 23:00N 50°21' E 000°03'713.8
2017-Oct-15 22:30N 50°19' W 000°08'713.8
2017-Oct-15 22:00N 50°17' W 000°18'713.7
2017-Oct-15 21:30N 50°16' W 000°29'713.9
2017-Oct-15 21:00N 50°14' W 000°39'914.4
2017-Oct-15 20:24N 50°11' W 000°52'5316.2
2017-Oct-15 17:06N 49°58' W 002°13'317.2
2017-Oct-15 16:54N 49°57' W 002°18'716.9
2017-Oct-15 16:30N 49°55' W 002°27'816.5
2017-Oct-15 16:00N 49°53' W 002°40'816.1
2017-Oct-15 15:30N 49°50' W 002°52'917.5
2017-Oct-15 15:00N 49°49' W 003°05'1818.0
2017-Oct-15 14:00N 49°47' W 003°33'917.8
2017-Oct-15 13:30N 49°46' W 003°46'917.7
2017-Oct-15 12:59N 49°45' W 004°01'817.5
2017-Oct-15 12:30N 49°44' W 004°13'917.2
2017-Oct-15 12:00N 49°44' W 004°27'917.2
2017-Oct-15 11:30N 49°44' W 004°40'917.1
2017-Oct-15 11:00N 49°43' W 004°53'917.1
2017-Oct-15 10:30N 49°42' W 005°06'917.1
2017-Oct-15 10:00N 49°41' W 005°20'817.0
2017-Oct-15 09:30N 49°41' W 005°33'817.0
2017-Oct-15 09:00N 49°40' W 005°46'917.0
2017-Oct-15 08:30N 49°39' W 005°59'816.8
2017-Oct-15 08:00N 49°39' W 006°12'917.5
2017-Oct-15 07:30N 49°38' W 006°25'917.3
2017-Oct-15 07:00N 49°40' W 006°39'917.2
2017-Oct-15 06:29N 49°44' W 006°51'917.1
2017-Oct-15 05:58N 49°52' W 006°58'817.8
2017-Oct-15 05:30N 49°59' W 007°02'917.7
2017-Oct-15 05:00N 50°08' W 007°07'917.7
2017-Oct-15 04:30N 50°16' W 007°11'1217.7
2017-Oct-15 03:48N 50°28' W 007°18'3717.5
2017-Oct-15 01:40N 51°03' W 007°37'417.2
2017-Oct-15 01:27N 51°06' W 007°39'817.3
2017-Oct-15 01:00N 51°14' W 007°44'917.1
2017-Oct-15 00:30N 51°22' W 007°48'917.1
2017-Oct-15 00:00N 51°29' W 007°54'917.3
2017-Oct-14 23:30N 51°36' W 008°02'917.2
2017-Oct-14 23:00N 51°43' W 008°11'611.3
2017-Oct-14 22:30N 51°48' W 008°16'3 6.5
2017-Oct-14 22:00N 51°50' W 008°19'0 0.9
2017-Oct-14 21:29N 51°50' W 008°20'0 0.0
2017-Oct-14 20:59N 51°50' W 008°20'0 0.0
2017-Oct-14 20:29N 51°50' W 008°20'0 0.0
2017-Oct-14 19:59N 51°50' W 008°20'0 0.0
2017-Oct-14 19:29N 51°50' W 008°20'0 0.0
2017-Oct-14 18:59N 51°50' W 008°20'0 0.0
2017-Oct-14 18:29N 51°50' W 008°20'0 0.0
2017-Oct-14 17:59N 51°50' W 008°20'0 0.0
2017-Oct-14 17:29N 51°50' W 008°20'0 0.0
2017-Oct-14 16:59N 51°50' W 008°20'0 0.0
2017-Oct-14 16:29N 51°50' W 008°20'0 0.0
2017-Oct-14 15:59N 51°50' W 008°20'0 0.0
2017-Oct-14 15:29N 51°50' W 008°20'0 0.0
2017-Oct-14 14:59N 51°50' W 008°20'0 0.0
2017-Oct-14 14:29N 51°50' W 008°20'0 0.0
2017-Oct-14 13:59N 51°50' W 008°20'0 0.0
2017-Oct-14 13:29N 51°50' W 008°20'0 0.0
2017-Oct-14 12:59N 51°50' W 008°20'0 0.0
2017-Oct-14 12:29N 51°50' W 008°20'0 1.0
2017-Oct-14 12:00N 51°50' W 008°19'3 5.1
2017-Oct-14 11:30N 51°49' W 008°16'612.0
2017-Oct-14 11:01N 51°45' W 008°09'917.3
2017-Oct-14 10:30N 51°43' W 007°55'917.6
2017-Oct-14 10:00N 51°42' W 007°41'917.5
2017-Oct-14 09:31N 51°41' W 007°27'917.2
2017-Oct-14 09:01N 51°40' W 007°13'1517.3
2017-Oct-14 08:07N 51°38' W 006°49'3417.0
2017-Oct-14 06:07N 51°33' W 005°55'316.8
2017-Oct-14 05:58N 51°33' W 005°51'816.9
2017-Oct-14 05:30N 51°32' W 005°38'917.1
2017-Oct-14 05:00N 51°31' W 005°25'817.2
2017-Oct-14 04:31N 51°30' W 005°11'917.8
2017-Oct-14 04:00N 51°28' W 004°57'917.9
2017-Oct-14 03:29N 51°27' W 004°42'918.0
2017-Oct-14 03:00N 51°26' W 004°28'1018.1
2017-Oct-14 02:27N 51°24' W 004°13'817.9
2017-Oct-14 02:00N 51°23' W 003°60'917.9
2017-Oct-14 01:30N 51°22' W 003°46'1117.7
2017-Oct-14 00:54N 51°21' W 003°29'717.4
2017-Oct-14 00:30N 51°21' W 003°17'611.9
2017-Oct-14 00:00N 51°22' W 003°08'714.9
2017-Oct-13 23:31N 51°27' W 002°60'714.9
2017-Oct-13 23:01N 51°29' W 002°48'3 6.1
2017-Oct-13 22:30N 51°30' W 002°44'0 0.2
2017-Oct-13 22:01N 51°30' W 002°43'0 0.7
2017-Oct-13 21:29N 51°30' W 002°43'0 0.0
2017-Oct-13 20:59N 51°30' W 002°43'0 0.0
2017-Oct-13 20:29N 51°30' W 002°43'0 0.0
2017-Oct-13 19:59N 51°30' W 002°43'0 0.0
2017-Oct-13 19:29N 51°30' W 002°43'0 0.0
2017-Oct-13 18:59N 51°30' W 002°43'0 0.0
2017-Oct-13 18:29N 51°30' W 002°43'0 0.0
2017-Oct-13 17:59N 51°30' W 002°43'0 0.0
2017-Oct-13 17:29N 51°30' W 002°43'0 0.0
2017-Oct-13 16:59N 51°30' W 002°43'0 0.0
2017-Oct-13 16:29N 51°30' W 002°43'0 0.0
2017-Oct-13 15:59N 51°30' W 002°43'0 0.0
2017-Oct-13 15:29N 51°30' W 002°43'0 0.0
2017-Oct-13 14:59N 51°30' W 002°43'0 0.0
2017-Oct-13 14:29N 51°30' W 002°43'0 0.0
2017-Oct-13 13:59N 51°30' W 002°43'0 0.0
2017-Oct-13 13:29N 51°30' W 002°43'0 0.0
2017-Oct-13 12:59N 51°30' W 002°43'0 0.0
2017-Oct-13 12:29N 51°30' W 002°43'0 0.0
2017-Oct-13 11:59N 51°30' W 002°43'0 0.0
2017-Oct-13 11:29N 51°30' W 002°43'0 0.0
2017-Oct-13 10:59N 51°30' W 002°43'0 0.0
2017-Oct-13 10:29N 51°30' W 002°43'0 0.0
2017-Oct-13 09:59N 51°30' W 002°43'0 0.0
2017-Oct-13 09:29N 51°30' W 002°43'0 0.0
2017-Oct-13 08:59N 51°30' W 002°43'0 0.0
2017-Oct-13 08:29N 51°30' W 002°43'0 0.0
2017-Oct-13 07:59N 51°30' W 002°43'0 0.0
2017-Oct-13 07:29N 51°30' W 002°43'0 0.0
2017-Oct-13 06:59N 51°30' W 002°43'0 0.0
2017-Oct-13 06:29N 51°30' W 002°43'0 0.0
2017-Oct-13 05:59N 51°30' W 002°43'0 0.0
2017-Oct-13 05:29N 51°30' W 002°43'0 0.0
2017-Oct-13 04:59N 51°30' W 002°43'0 0.0
2017-Oct-13 04:29N 51°30' W 002°43'0 0.0
2017-Oct-13 03:59N 51°30' W 002°43'0 0.0
2017-Oct-13 03:29N 51°30' W 002°43'0 0.0
2017-Oct-13 02:59N 51°30' W 002°43'0 0.0
2017-Oct-13 02:29N 51°30' W 002°43'0 0.0
2017-Oct-13 01:59N 51°30' W 002°43'0 0.0
2017-Oct-13 01:29N 51°30' W 002°43'0 0.0
2017-Oct-13 00:59N 51°30' W 002°43'0 0.0
2017-Oct-13 00:29N 51°30' W 002°43'0 0.1
2017-Oct-13 00:00N 51°30' W 002°43'0 0.7
2017-Oct-12 23:30N 51°30' W 002°43'2 3.0
2017-Oct-12 23:00N 51°30' W 002°46'612.4
2017-Oct-12 22:30N 51°28' W 002°55'917.6
2017-Oct-12 22:01N 51°22' W 003°06'1014.9
2017-Oct-12 21:21N 51°21' W 003°22'713.1
2017-Oct-12 20:51N 51°21' W 003°32'1017.4
2017-Oct-12 20:17N 51°21' W 003°48'518.6
2017-Oct-12 20:00N 51°21' W 003°56'918.2
2017-Oct-12 19:30N 51°21' W 004°11'918.0
2017-Oct-12 18:59N 51°21' W 004°26'817.7
2017-Oct-12 18:30N 51°21' W 004°39'917.5
2017-Oct-12 18:00N 51°21' W 004°53'917.3
2017-Oct-12 17:30N 51°20' W 005°07'612.2
2017-Oct-12 17:00N 51°17' W 005°15'714.7
2017-Oct-12 16:30N 51°10' W 005°16'714.7
2017-Oct-12 16:00N 51°02' W 005°16'815.3
2017-Oct-12 15:30N 50°55' W 005°16'714.7
2017-Oct-12 15:00N 50°47' W 005°15'714.8
2017-Oct-12 14:30N 50°40' W 005°19'816.8
2017-Oct-12 14:00N 50°35' W 005°29'816.9
2017-Oct-12 13:30N 50°29' W 005°39'816.8
2017-Oct-12 13:00N 50°24' W 005°49'815.9
2017-Oct-12 12:30N 50°16' W 005°54'4116.6
2017-Oct-12 10:03N 49°36' W 005°57'317.6
2017-Oct-12 09:55N 49°33' W 005°58'917.5
2017-Oct-12 09:25N 49°25' W 006°03'817.7
2017-Oct-12 08:57N 49°18' W 006°08'817.8
2017-Oct-12 08:30N 49°10' W 006°13'917.9
2017-Oct-12 08:00N 49°02' W 006°18'58818.4
2017-Oct-11 00:00N 39°34' W 009°52'918.8
2017-Oct-10 23:30N 39°25' W 009°53'1019.1
2017-Oct-10 23:00N 39°15' W 009°53'918.8
2017-Oct-10 22:30N 39°06' W 009°52'918.7
2017-Oct-10 22:00N 38°57' W 009°52'918.5
2017-Oct-10 21:30N 38°47' W 009°52'918.4
2017-Oct-10 21:00N 38°38' W 009°50'917.9
2017-Oct-10 20:30N 38°32' W 009°42'1019.0
2017-Oct-10 20:00N 38°28' W 009°31'1019.1
2017-Oct-10 19:30N 38°23' W 009°20'917.5
2017-Oct-10 19:00N 38°22' W 009°09'918.0
2017-Oct-10 18:31N 38°26' W 008°59'713.1
2017-Oct-10 18:01N 38°31' W 008°54'1 1.3
2017-Oct-10 17:28N 38°31' W 008°53'0 0.0
2017-Oct-10 16:58N 38°31' W 008°53'0 0.0
2017-Oct-10 16:28N 38°31' W 008°53'0 0.0
2017-Oct-10 15:55N 38°31' W 008°53'0 0.0
2017-Oct-10 15:28N 38°31' W 008°53'0 0.0
2017-Oct-10 14:58N 38°31' W 008°53'0 0.0
2017-Oct-10 14:01N 38°31' W 008°53'0 0.0
2017-Oct-10 13:31N 38°31' W 008°53'0 0.0
2017-Oct-10 13:01N 38°31' W 008°53'0 0.0
2017-Oct-10 12:30N 38°31' W 008°53'0 0.2
2017-Oct-10 12:01N 38°31' W 008°53'3 5.9
2017-Oct-10 11:30N 38°29' W 008°56'613.0
2017-Oct-10 11:00N 38°24' W 009°01'4 7.3
2017-Oct-10 10:30N 38°21' W 009°03'4 8.7
2017-Oct-10 10:00N 38°17' W 009°03'0 0.8
2017-Oct-10 09:30N 38°17' W 009°02'0 0.6
2017-Oct-10 09:00N 38°17' W 009°02'0 0.4
2017-Oct-10 08:30N 38°17' W 009°02'0 0.3
2017-Oct-10 08:00N 38°17' W 009°02'0 0.4
2017-Oct-10 07:30N 38°16' W 009°02'0 0.6
2017-Oct-10 07:00N 38°16' W 009°02'0 0.5
2017-Oct-10 06:30N 38°16' W 009°02'0 0.4
2017-Oct-10 06:00N 38°16' W 009°02'0 0.5
2017-Oct-10 05:30N 38°17' W 009°02'0 0.5
2017-Oct-10 05:00N 38°17' W 009°02'1 1.6
2017-Oct-10 04:30N 38°16' W 009°02'611.1
2017-Oct-10 04:00N 38°11' W 009°03'714.0
2017-Oct-10 03:30N 38°04' W 009°05'815.2
2017-Oct-10 03:00N 37°57' W 009°08'815.5
2017-Oct-10 02:30N 37°49' W 009°10'815.6
2017-Oct-10 02:00N 37°42' W 009°15'816.2
2017-Oct-10 01:30N 37°34' W 009°16'816.0
2017-Oct-10 01:00N 37°26' W 009°17'816.0
2017-Oct-10 00:30N 37°18' W 009°19'816.2
2017-Oct-10 00:00N 37°10' W 009°19'816.1
2017-Oct-09 23:30N 37°02' W 009°21'815.9
2017-Oct-09 23:00N 36°54' W 009°20'815.7
2017-Oct-09 22:30N 36°48' W 009°14'815.7
2017-Oct-09 22:00N 36°44' W 009°06'816.6
2017-Oct-09 21:30N 36°41' W 008°56'816.7
2017-Oct-09 21:00N 36°38' W 008°47'917.2
2017-Oct-09 20:30N 36°35' W 008°36'916.9
2017-Oct-09 19:57N 36°33' W 008°25'917.0
2017-Oct-09 19:25N 36°30' W 008°14'716.7
2017-Oct-09 19:00N 36°28' W 008°06'916.8
2017-Oct-09 18:30N 36°25' W 007°56'817.1
2017-Oct-09 18:00N 36°23' W 007°46'917.3
2017-Oct-09 17:30N 36°20' W 007°36'917.3
2017-Oct-09 17:00N 36°18' W 007°26'917.5
2017-Oct-09 16:30N 36°15' W 007°16'917.6
2017-Oct-09 16:00N 36°12' W 007°05'917.6
2017-Oct-09 15:29N 36°09' W 006°55'817.4
2017-Oct-09 15:00N 36°06' W 006°45'917.2
2017-Oct-09 14:30N 36°03' W 006°35'917.0
2017-Oct-09 13:58N 36°01' W 006°24'918.2
2017-Oct-09 13:28N 35°58' W 006°13'25217.7
2017-Oct-08 23:14N 37°07' W 001°11'719.0
2017-Oct-08 22:51N 37°12' W 001°05'718.9
2017-Oct-08 22:30N 37°16' W 000°58'1818.8
2017-Oct-08 21:33N 37°28' W 000°41'118.6
2017-Oct-08 21:30N 37°29' W 000°41'918.5
2017-Oct-08 21:00N 37°36' W 000°33'918.6
2017-Oct-08 20:30N 37°44' W 000°26'1418.7
2017-Oct-08 19:44N 37°56' W 000°16'418.5
2017-Oct-08 19:30N 37°59' W 000°13'1018.6
2017-Oct-08 18:58N 38°07' W 000°06'1418.6
2017-Oct-08 18:14N 38°19' E 000°03'518.5
2017-Oct-08 18:00N 38°23' E 000°06'141 6.4
2017-Oct-07 19:59N 39°56' E 002°23'916.5
2017-Oct-07 19:27N 39°58' E 002°34'1116.6
2017-Oct-07 18:46N 40°01' E 002°49'  

Dump ship's entire track history